Terminal Aerodrome Forecast
Issued by NWS Wakefield, VA

Home | Current Version | Previous Version | Text Only | Print | Product List | Glossary On
Versions: 1 2 3 4 5 6 7 8 9 10 11 12 13 14 15 16 17 18 19 20 21 22 23 24 25 26 27 28 29
000
FTUS41 KAKQ 011007 AAB
TAFORF
TAF AMD
KORF 011007Z 0110/0206 15006KT P6SM -SHRA BKN012 OVC025
      TEMPO 0110/0112 3SM TSRA BR OVC015CB
     FM011200 18005KT P6SM BKN040
     FM011800 17008KT P6SM SCT050=

USA.gov is the U.S. government's official web portal to all federal, state and local government web resources and services.